createdAt,value
2018-05-14T00:00:22.712Z,69.60
2018-05-14T00:02:15.736Z,71.50
2018-05-14T00:03:15.370Z,70.20
2018-05-14T00:05:09.148Z,70.80
2018-05-14T00:06:08.529Z,71.20
2018-05-14T00:08:02.440Z,72.20
2018-05-14T00:09:01.615Z,71.00
2018-05-14T00:10:55.824Z,70.70
2018-05-14T00:11:55.267Z,72.20
2018-05-14T00:13:49.212Z,73.60
2018-05-14T00:14:48.665Z,74.90
2018-05-14T00:16:43.650Z,74.50
2018-05-14T00:17:43.397Z,75.80
2018-05-14T00:19:35.997Z,73.50
2018-05-14T00:20:35.373Z,74.80
2018-05-14T00:22:30.208Z,76.20
2018-05-14T00:23:28.375Z,71.90
2018-05-14T00:25:22.221Z,74.30
2018-05-14T00:26:21.672Z,75.60
2018-05-14T00:28:15.550Z,75.50
2018-05-14T00:29:15.484Z,76.20
2018-05-14T00:31:09.852Z,76.30
2018-05-14T00:32:08.835Z,75.50
2018-05-14T00:34:02.248Z,75.90
2018-05-14T00:35:01.851Z,76.80
2018-05-14T00:36:55.606Z,77.30
2018-05-14T00:37:55.148Z,79.40
2018-05-14T00:39:49.483Z,80.00
2018-05-14T00:40:48.547Z,84.20
2018-05-14T00:42:42.873Z,81.30
2018-05-14T00:43:42.266Z,81.80
2018-05-14T00:45:35.709Z,81.60
2018-05-14T00:46:36.196Z,82.40
2018-05-14T00:48:29.629Z,82.80
2018-05-14T00:49:29.241Z,83.50
2018-05-14T00:51:23.021Z,83.10
2018-05-14T00:52:22.623Z,82.70
2018-05-14T00:54:15.969Z,83.60
2018-05-14T00:55:16.475Z,86.00
2018-05-14T00:57:09.391Z,88.60
2018-05-14T00:58:09.164Z,85.50
2018-05-14T01:00:03.671Z,86.40
2018-05-14T01:01:04.128Z,87.90
2018-05-14T01:02:56.088Z,87.80
2018-05-14T01:03:57.519Z,86.50
2018-05-14T01:05:50.042Z,86.00
2018-05-14T01:06:49.579Z,88.70
2018-05-14T01:08:42.731Z,91.00
2018-05-14T01:09:42.294Z,93.80
2018-05-14T01:11:37.647Z,92.30
2018-05-14T01:12:35.666Z,91.90
2018-05-14T01:14:29.386Z,92.60
2018-05-14T01:15:29.043Z,90.80
2018-05-14T01:17:22.927Z,95.10
2018-05-14T01:18:22.461Z,95.00
2018-05-14T01:20:16.128Z,94.30
2018-05-14T01:21:15.792Z,97.50
2018-05-14T01:23:09.558Z,97.60
2018-05-14T01:24:09.186Z,96.30
2018-05-14T01:26:02.862Z,97.70
2018-05-14T01:27:02.879Z,95.60
2018-05-14T01:28:56.250Z,92.80
2018-05-14T01:29:55.942Z,94.50
2018-05-14T01:31:49.707Z,93.70
2018-05-14T01:32:49.178Z,95.20
2018-05-14T01:34:42.988Z,96.00
2018-05-14T01:35:42.643Z,95.10
2018-05-14T01:37:36.387Z,93.70
2018-05-14T01:38:36.527Z,97.90
2018-05-14T01:40:31.319Z,95.90
2018-05-14T01:41:29.905Z,94.30
2018-05-14T01:43:23.614Z,95.20
2018-05-14T01:44:24.133Z,96.00
2018-05-14T01:46:17.111Z,93.20
2018-05-14T01:47:16.629Z,96.80
2018-05-14T01:49:11.047Z,95.90
2018-05-14T01:50:10.381Z,97.10
2018-05-14T01:52:03.838Z,97.70
2018-05-14T01:53:03.407Z,98.00
2018-05-14T01:54:57.401Z,97.80
2018-05-14T01:55:56.717Z,93.00
2018-05-14T01:57:50.901Z,98.90
2018-05-14T01:58:50.971Z,95.50
2018-05-14T02:00:44.416Z,96.00
2018-05-14T02:01:43.879Z,98.70
2018-05-14T02:03:37.219Z,95.70
2018-05-14T02:04:36.763Z,97.60
2018-05-14T02:06:31.203Z,97.30
2018-05-14T02:07:29.774Z,98.20
2018-05-14T02:09:24.501Z,96.50
2018-05-14T02:10:23.175Z,98.60
2018-05-14T02:12:17.003Z,95.50
2018-05-14T02:13:17.158Z,95.70
2018-05-14T02:15:10.393Z,92.20
2018-05-14T02:16:09.871Z,95.80
2018-05-14T02:18:04.179Z,96.60
2018-05-14T02:19:02.908Z,97.10
2018-05-14T02:20:56.725Z,97.00
2018-05-14T02:21:57.159Z,97.60
2018-05-14T02:23:50.036Z,94.90
2018-05-14T02:24:49.599Z,93.80
2018-05-14T02:26:43.024Z,93.90
2018-05-14T02:27:42.616Z,92.80
2018-05-14T02:29:37.494Z,94.80
2018-05-14T02:30:35.973Z,96.80
2018-05-14T02:32:30.854Z,96.50
2018-05-14T02:33:29.387Z,96.40
2018-05-14T02:35:23.137Z,95.10
2018-05-14T02:36:22.792Z,99.40
2018-05-14T02:38:16.519Z,100.40
2018-05-14T02:39:16.073Z,98.90
2018-05-14T02:41:09.480Z,97.20
2018-05-14T02:42:09.156Z,98.40
2018-05-14T02:44:03.361Z,96.40
2018-05-14T02:45:02.823Z,94.00
2018-05-14T02:46:56.173Z,94.10
2018-05-14T02:47:55.721Z,94.30
2018-05-14T02:49:49.587Z,95.30
2018-05-14T02:50:49.099Z,92.20
2018-05-14T02:52:43.901Z,96.30
2018-05-14T02:53:43.888Z,94.00
2018-05-14T02:55:36.326Z,92.40
2018-05-14T02:56:35.923Z,95.30
2018-05-14T02:58:29.703Z,91.40
2018-05-14T02:59:29.653Z,92.00
2018-05-14T03:01:23.029Z,92.90
2018-05-14T03:02:23.517Z,90.90
2018-05-14T03:04:16.904Z,89.40
2018-05-14T03:05:17.835Z,90.30
2018-05-14T03:07:09.788Z,93.80
2018-05-14T03:08:09.749Z,92.50
2018-05-14T03:10:03.276Z,95.20
2018-05-14T03:11:02.458Z,93.30
2018-05-14T03:12:56.651Z,91.70
2018-05-14T03:13:57.066Z,89.90
2018-05-14T03:15:49.836Z,93.50
2018-05-14T03:16:48.967Z,91.80
2018-05-14T03:18:42.454Z,92.80
2018-05-14T03:19:44.984Z,91.70
2018-05-14T03:21:36.231Z,91.50
2018-05-14T03:22:35.465Z,89.00
2018-05-14T03:24:29.678Z,88.60
2018-05-14T03:25:28.764Z,85.30
2018-05-14T03:27:23.045Z,91.20
2018-05-14T03:28:22.539Z,88.70
2018-05-14T03:30:15.891Z,89.60
2018-05-14T03:31:15.907Z,87.80
2018-05-14T03:33:10.670Z,88.60
2018-05-14T03:34:08.940Z,86.60
2018-05-14T03:36:03.569Z,85.40
2018-05-14T03:37:02.277Z,86.90
2018-05-14T03:38:56.609Z,88.60
2018-05-14T03:39:56.030Z,87.50
2018-05-14T03:41:50.326Z,84.10
2018-05-14T03:42:49.033Z,81.70
2018-05-14T03:44:44.180Z,84.50
2018-05-14T03:45:42.453Z,83.30
2018-05-14T03:47:36.133Z,86.30
2018-05-14T03:48:36.111Z,85.60
2018-05-14T03:50:30.067Z,85.00
2018-05-14T03:51:29.467Z,85.60
2018-05-14T03:53:22.884Z,85.80
2018-05-14T03:54:22.875Z,83.60
2018-05-14T03:56:16.265Z,82.90
2018-05-14T03:57:16.698Z,83.70
2018-05-14T03:59:10.097Z,82.20
2018-05-14T04:00:09.200Z,79.50
2018-05-14T04:02:02.970Z,78.30
2018-05-14T04:03:02.947Z,78.40
2018-05-14T04:04:56.269Z,77.90
2018-05-14T04:05:56.056Z,78.90
2018-05-14T04:07:50.380Z,79.50
2018-05-14T04:08:50.200Z,77.90
2018-05-14T04:10:44.172Z,75.50
2018-05-14T04:11:43.618Z,77.30
2018-05-14T04:13:38.501Z,76.40
2018-05-14T04:14:37.197Z,75.30
2018-05-14T04:16:31.497Z,75.40
2018-05-14T04:17:30.878Z,77.60
2018-05-14T04:19:24.255Z,72.40
2018-05-14T04:20:23.268Z,74.20
2018-05-14T04:22:17.153Z,74.10
2018-05-14T04:23:16.717Z,73.60
2018-05-14T04:25:10.485Z,73.70
2018-05-14T04:26:10.996Z,70.40
2018-05-14T04:28:04.410Z,71.80
2018-05-14T04:29:03.616Z,69.50
2018-05-14T04:30:57.816Z,72.90
2018-05-14T04:31:57.738Z,71.00
2018-05-14T04:33:50.611Z,72.00
2018-05-14T04:34:51.143Z,72.40
2018-05-14T04:36:44.941Z,72.70
2018-05-14T04:37:44.074Z,72.60
2018-05-14T04:39:37.002Z,69.90
2018-05-14T04:40:36.896Z,68.80
2018-05-14T04:42:30.112Z,73.50
2018-05-14T04:43:30.015Z,72.30
2018-05-14T04:45:23.429Z,72.00
2018-05-14T04:46:24.452Z,70.80
2018-05-14T04:48:17.438Z,68.30
2018-05-14T04:49:16.847Z,67.50
2018-05-14T04:51:10.253Z,70.30
2018-05-14T04:52:11.714Z,70.00
2018-05-14T04:54:04.136Z,70.70
2018-05-14T04:55:04.101Z,69.20
2018-05-14T04:56:56.895Z,69.50
2018-05-14T04:57:56.946Z,67.20
2018-05-14T04:59:50.847Z,67.80
2018-05-14T05:00:50.014Z,64.90
2018-05-14T05:02:43.815Z,65.50
2018-05-14T05:03:43.651Z,64.60
2018-05-14T05:05:37.072Z,66.70
2018-05-14T05:06:36.961Z,65.80
2018-05-14T05:08:30.453Z,65.50
2018-05-14T05:09:30.321Z,63.90
2018-05-14T05:11:23.698Z,63.50
2018-05-14T05:12:23.890Z,62.30
2018-05-14T05:14:17.213Z,62.50
2018-05-14T05:15:17.173Z,62.00
2018-05-14T05:17:10.554Z,61.90
2018-05-14T05:18:10.523Z,64.30
2018-05-14T05:20:04.485Z,64.00
2018-05-14T05:21:04.370Z,63.30
2018-05-14T05:22:58.034Z,61.50
2018-05-14T05:23:59.019Z,62.60
2018-05-14T05:25:50.863Z,61.00
2018-05-14T05:26:51.327Z,61.50
2018-05-14T05:28:44.654Z,60.80
2018-05-14T05:29:43.802Z,60.90
2018-05-14T05:31:37.548Z,64.80
2018-05-14T05:32:38.069Z,61.80
2018-05-14T05:34:31.474Z,61.20
2018-05-14T05:35:30.869Z,62.50
2018-05-14T05:37:24.861Z,62.30
2018-05-14T05:38:25.299Z,61.30
2018-05-14T05:40:17.688Z,63.10
2018-05-14T05:41:17.512Z,63.20
2018-05-14T05:43:11.038Z,63.70
2018-05-14T05:44:11.008Z,62.40
2018-05-14T05:46:04.393Z,64.10
2018-05-14T05:47:04.311Z,63.90
2018-05-14T05:48:57.679Z,64.40
2018-05-14T05:49:57.792Z,62.60
2018-05-14T05:51:54.193Z,61.40
2018-05-14T05:52:53.312Z,63.80
2018-05-14T05:54:47.113Z,63.50
2018-05-14T05:55:46.091Z,64.70
2018-05-14T05:57:39.141Z,62.90
2018-05-14T05:58:38.943Z,63.10
2018-05-14T06:00:32.768Z,63.40
2018-05-14T06:01:32.694Z,63.60
2018-05-14T06:03:26.059Z,66.10
2018-05-14T06:04:26.109Z,66.10
2018-05-14T06:06:20.506Z,67.20
2018-05-14T06:07:20.442Z,66.30
2018-05-14T06:09:13.945Z,64.70
2018-05-14T06:10:13.816Z,64.90
2018-05-14T06:12:08.240Z,62.80
2018-05-14T06:13:08.164Z,64.00
2018-05-14T06:15:01.552Z,64.80
2018-05-14T06:16:01.504Z,65.20
2018-05-14T06:17:55.585Z,67.10
2018-05-14T06:18:55.528Z,66.80
2018-05-14T06:20:48.725Z,63.70
2018-05-14T06:21:48.859Z,64.00
2018-05-14T06:23:42.132Z,65.10
2018-05-14T06:24:41.763Z,65.50
2018-05-14T06:26:35.965Z,65.80
2018-05-14T06:27:35.169Z,68.50
2018-05-14T06:29:28.392Z,63.40
2018-05-14T06:30:28.036Z,65.50
2018-05-14T06:32:21.731Z,65.30
2018-05-14T06:33:21.623Z,66.30
2018-05-14T06:35:15.026Z,65.70
2018-05-14T06:36:14.811Z,65.70
2018-05-14T06:38:07.909Z,67.40
2018-05-14T06:39:07.854Z,65.30
2018-05-14T06:41:01.009Z,65.80
2018-05-14T06:42:00.966Z,67.80
2018-05-14T06:43:54.192Z,65.50
2018-05-14T06:44:54.135Z,67.90
2018-05-14T06:46:47.579Z,66.20
2018-05-14T06:49:00.403Z,67.10
2018-05-14T06:50:00.435Z,64.80
2018-05-14T06:51:54.835Z,65.60
2018-05-14T06:52:54.814Z,63.80
2018-05-14T06:54:48.241Z,65.70
2018-05-14T06:55:47.808Z,64.80
2018-05-14T06:57:41.579Z,65.30
2018-05-14T06:58:41.515Z,64.90
2018-05-14T07:00:34.482Z,62.50
2018-05-14T07:01:34.359Z,65.20
2018-05-14T07:03:27.079Z,63.10
2018-05-14T07:04:27.217Z,64.70
2018-05-14T07:06:21.191Z,63.50
2018-05-14T07:07:20.609Z,63.10
2018-05-14T07:09:14.173Z,62.40
2018-05-14T07:10:14.029Z,61.30
2018-05-14T07:12:07.115Z,61.60
2018-05-14T07:13:07.418Z,61.00
2018-05-14T07:15:00.742Z,59.90
2018-05-14T07:16:00.427Z,59.10
2018-05-14T07:17:54.193Z,55.80
2018-05-14T07:18:53.827Z,56.00
2018-05-14T07:20:47.154Z,55.50
2018-05-14T07:21:46.952Z,55.20
2018-05-14T07:23:42.235Z,58.70
2018-05-14T07:24:40.375Z,57.60
2018-05-14T07:26:33.749Z,54.50
2018-05-14T07:27:33.438Z,55.90
2018-05-14T07:29:27.187Z,52.70
2018-05-14T07:30:27.187Z,54.60
2018-05-14T07:32:20.611Z,56.10
2018-05-14T07:33:20.681Z,55.70
2018-05-14T07:35:14.076Z,54.40
2018-05-14T07:36:14.100Z,53.80
2018-05-14T07:38:07.863Z,52.50
2018-05-14T07:39:07.990Z,53.40
2018-05-14T07:41:00.942Z,51.50
2018-05-14T07:42:00.481Z,51.80
2018-05-14T07:43:55.737Z,52.80
2018-05-14T07:44:54.772Z,51.90
2018-05-14T07:46:50.679Z,52.30
2018-05-14T07:47:51.042Z,52.20
2018-05-14T07:50:32.848Z,54.00
2018-05-14T07:51:32.302Z,54.80
2018-05-14T07:53:26.146Z,54.90
2018-05-14T07:54:26.155Z,53.30
2018-05-14T07:56:19.422Z,53.80
2018-05-14T07:57:19.501Z,55.10
2018-05-14T07:59:12.949Z,53.80
2018-05-14T08:00:12.881Z,53.40
2018-05-14T08:02:06.329Z,55.50
2018-05-14T08:03:06.221Z,56.60
2018-05-14T08:05:00.136Z,56.90
2018-05-14T08:05:59.325Z,56.20
2018-05-14T08:07:53.599Z,56.10
2018-05-14T08:08:53.240Z,57.90
2018-05-14T08:10:47.037Z,58.30
2018-05-14T08:11:47.005Z,56.90
2018-05-14T08:13:40.726Z,57.40
2018-05-14T08:14:40.818Z,58.10
2018-05-14T08:16:33.759Z,59.00
2018-05-14T08:17:35.782Z,58.60
2018-05-14T08:19:28.609Z,60.20
2018-05-14T08:20:27.357Z,59.10
2018-05-14T08:22:23.374Z,58.10
2018-05-14T08:23:20.831Z,57.70
2018-05-14T08:25:14.327Z,58.90
2018-05-14T08:26:13.665Z,58.60
2018-05-14T08:28:07.503Z,57.20
2018-05-14T08:29:06.917Z,57.40
2018-05-14T08:31:01.986Z,57.10
2018-05-14T08:32:02.979Z,57.40
2018-05-14T08:33:54.924Z,59.40
2018-05-14T08:34:54.589Z,59.80
2018-05-14T08:36:48.458Z,57.40
2018-05-14T08:37:48.255Z,57.30
2018-05-14T08:39:42.059Z,54.50
2018-05-14T08:40:42.836Z,54.70
2018-05-14T08:42:35.926Z,57.20
2018-05-14T08:43:35.620Z,56.10
2018-05-14T08:45:29.900Z,56.70
2018-05-14T08:46:29.404Z,57.60
2018-05-14T08:48:23.871Z,57.70
2018-05-14T08:49:24.871Z,54.90
2018-05-14T08:51:17.234Z,57.10
2018-05-14T08:52:16.690Z,57.30
2018-05-14T08:54:10.275Z,58.50
2018-05-14T08:55:11.113Z,57.60
2018-05-14T08:57:03.453Z,60.30
2018-05-14T08:58:03.105Z,59.90
2018-05-14T08:59:56.734Z,58.30
2018-05-14T09:00:57.956Z,58.30
2018-05-14T09:02:50.072Z,57.70
2018-05-14T09:03:50.048Z,57.20
2018-05-14T09:06:03.888Z,59.10
2018-05-14T09:08:19.162Z,58.50
2018-05-14T09:09:18.747Z,58.60
2018-05-14T09:11:12.500Z,59.40
2018-05-14T09:12:12.469Z,60.70
2018-05-14T09:14:06.628Z,59.30
2018-05-14T09:15:05.865Z,58.60
2018-05-14T09:16:59.404Z,58.70
2018-05-14T09:18:00.606Z,57.90
2018-05-14T09:19:51.945Z,57.20
2018-05-14T09:20:52.858Z,56.00
2018-05-14T09:22:45.304Z,57.40
2018-05-14T09:23:45.319Z,57.80
2018-05-14T09:25:39.378Z,57.40
2018-05-14T09:26:38.732Z,57.50
2018-05-14T09:28:32.756Z,54.50
2018-05-14T09:29:32.681Z,54.50
2018-05-14T09:31:31.241Z,53.80
2018-05-14T09:32:33.817Z,54.80
2018-05-14T09:34:24.950Z,56.60
2018-05-14T09:35:24.798Z,54.80
2018-05-14T09:37:17.821Z,54.70
2018-05-14T09:38:17.486Z,54.40
2018-05-14T09:40:10.643Z,55.10
2018-05-14T09:41:10.353Z,56.30
2018-05-14T09:43:04.009Z,55.40
2018-05-14T09:44:03.722Z,56.60
2018-05-14T09:45:57.368Z,55.90
2018-05-14T09:46:57.127Z,57.90
2018-05-14T09:48:50.784Z,57.80
2018-05-14T09:49:50.518Z,57.80
2018-05-14T09:51:43.545Z,57.00
2018-05-14T09:52:43.390Z,55.20
2018-05-14T09:54:36.602Z,56.20
2018-05-14T09:55:36.307Z,55.10
2018-05-14T09:57:29.187Z,55.90
2018-05-14T09:58:29.168Z,55.90
2018-05-14T10:00:22.071Z,55.10
2018-05-14T10:01:22.049Z,57.30
2018-05-14T10:03:14.955Z,55.70
2018-05-14T10:04:14.975Z,56.10
2018-05-14T10:06:08.345Z,53.50
2018-05-14T10:07:08.315Z,53.90
2018-05-14T10:09:01.770Z,54.80
2018-05-14T10:10:01.753Z,54.70
2018-05-14T10:11:55.724Z,56.40
2018-05-14T10:12:55.224Z,56.80
2018-05-14T10:14:48.080Z,57.60
2018-05-14T10:15:48.025Z,57.20
2018-05-14T10:17:41.445Z,57.00
2018-05-14T10:18:41.491Z,57.00
2018-05-14T10:20:34.827Z,57.70
2018-05-14T10:21:34.797Z,57.80
2018-05-14T10:23:27.705Z,54.80
2018-05-14T10:24:27.695Z,54.90
2018-05-14T10:26:20.591Z,55.70
2018-05-14T10:27:20.584Z,57.90
2018-05-14T10:29:13.481Z,55.80
2018-05-14T10:30:13.454Z,56.10
2018-05-14T10:32:06.397Z,57.60
2018-05-14T10:33:06.347Z,56.80
2018-05-14T10:34:59.253Z,57.00
2018-05-14T10:35:59.230Z,57.70
2018-05-14T10:37:52.161Z,55.70
2018-05-14T10:38:52.125Z,56.80
2018-05-14T10:40:45.042Z,58.00
2018-05-14T10:41:45.009Z,56.70
2018-05-14T10:43:37.919Z,57.70
2018-05-14T10:44:37.897Z,58.40
2018-05-14T10:46:30.803Z,55.50
2018-05-14T10:47:30.784Z,56.20
2018-05-14T10:49:23.687Z,56.30
2018-05-14T10:50:23.681Z,55.40
2018-05-14T10:52:17.068Z,56.50
2018-05-14T10:53:17.053Z,54.70
2018-05-14T10:55:10.062Z,54.60
2018-05-14T10:56:09.937Z,55.30
2018-05-14T10:58:02.845Z,57.30
2018-05-14T10:59:02.834Z,56.10
2018-05-14T11:00:56.227Z,56.50
2018-05-14T11:01:56.211Z,55.60
2018-05-14T11:03:49.206Z,55.90
2018-05-14T11:04:49.101Z,58.00
2018-05-14T11:06:42.702Z,57.20
2018-05-14T11:07:42.682Z,57.00
2018-05-14T11:09:35.625Z,57.90
2018-05-14T11:10:35.626Z,57.80
2018-05-14T11:12:28.672Z,59.00
2018-05-14T11:13:28.498Z,58.80
2018-05-14T11:15:21.423Z,58.00
2018-05-14T11:16:21.379Z,58.80
2018-05-14T11:18:14.309Z,57.90
2018-05-14T11:19:14.288Z,58.10
2018-05-14T11:21:07.198Z,58.10
2018-05-14T11:22:07.181Z,57.30
2018-05-14T11:24:00.106Z,57.70
2018-05-14T11:25:00.075Z,59.60
2018-05-14T11:26:52.990Z,58.90
2018-05-14T11:27:52.986Z,59.00
2018-05-14T11:29:45.871Z,60.20
2018-05-14T11:30:45.850Z,60.00
2018-05-14T11:32:38.755Z,59.50
2018-05-14T11:33:38.739Z,59.00
2018-05-14T11:35:32.261Z,59.90
2018-05-14T11:36:32.119Z,58.30
2018-05-14T11:38:25.622Z,57.30
2018-05-14T11:39:25.508Z,59.10
2018-05-14T11:41:18.549Z,59.90
2018-05-14T11:42:18.413Z,60.40
2018-05-14T11:44:11.313Z,59.10
2018-05-14T11:45:11.287Z,58.90
2018-05-14T11:47:04.247Z,59.50
2018-05-14T11:48:04.176Z,59.60
2018-05-14T11:49:57.197Z,59.60
2018-05-14T11:50:57.064Z,58.60
2018-05-14T11:52:50.149Z,58.50
2018-05-14T11:53:49.951Z,58.20
2018-05-14T11:55:42.859Z,59.70
2018-05-14T11:56:42.886Z,61.10
2018-05-14T11:58:36.815Z,59.50
2018-05-14T11:59:36.222Z,58.00
2018-05-14T12:01:29.630Z,59.60
2018-05-14T12:02:29.597Z,60.80
2018-05-14T12:04:22.524Z,59.50
2018-05-14T12:05:22.504Z,60.10
2018-05-14T12:07:15.963Z,58.40
2018-05-14T12:08:15.374Z,59.90
2018-05-14T12:10:08.340Z,60.70
2018-05-14T12:11:08.257Z,58.80
2018-05-14T12:13:01.796Z,60.80
2018-05-14T12:14:01.649Z,62.20
2018-05-14T12:15:55.061Z,61.90
2018-05-14T12:16:55.015Z,60.60
2018-05-14T12:18:47.931Z,62.10
2018-05-14T12:19:47.907Z,63.60
2018-05-14T12:21:40.820Z,63.90
2018-05-14T12:22:40.802Z,65.60
2018-05-14T12:24:33.792Z,65.80
2018-05-14T12:25:33.687Z,64.30
2018-05-14T12:27:26.726Z,66.20
2018-05-14T12:28:26.576Z,66.80
2018-05-14T12:30:20.093Z,67.10
2018-05-14T12:31:19.953Z,66.90
2018-05-14T12:33:12.864Z,66.10
2018-05-14T12:34:12.836Z,66.90
2018-05-14T12:36:05.748Z,67.30
2018-05-14T12:37:05.725Z,72.30
2018-05-14T12:38:58.630Z,71.00
2018-05-14T12:39:58.626Z,72.60
2018-05-14T12:41:51.578Z,71.00
2018-05-14T12:42:51.497Z,69.80
2018-05-14T12:44:44.421Z,71.10
2018-05-14T12:45:44.389Z,71.20
2018-05-14T12:47:37.859Z,71.50
2018-05-14T12:48:37.273Z,71.00
2018-05-14T12:50:30.692Z,73.40
2018-05-14T12:51:30.664Z,70.60
2018-05-14T12:53:23.565Z,71.40
2018-05-14T12:54:23.553Z,71.80
2018-05-14T12:56:16.458Z,75.70
2018-05-14T12:57:16.464Z,77.40
2018-05-14T12:59:09.337Z,75.20
2018-05-14T13:00:09.362Z,75.10
2018-05-14T13:02:02.292Z,72.50
2018-05-14T13:03:02.203Z,72.50
2018-05-14T13:04:55.125Z,74.80
2018-05-14T13:05:55.090Z,75.20
2018-05-14T13:07:48.004Z,79.30
2018-05-14T13:08:47.979Z,77.20
2018-05-14T13:10:40.900Z,74.40
2018-05-14T13:11:40.862Z,75.60
2018-05-14T13:13:33.775Z,75.20
2018-05-14T13:14:33.759Z,76.80
2018-05-14T13:16:27.249Z,77.50
2018-05-14T13:17:27.136Z,75.70
2018-05-14T13:19:20.141Z,78.70
2018-05-14T13:20:20.011Z,79.50
2018-05-14T13:22:12.992Z,78.40
2018-05-14T13:23:12.894Z,80.80
2018-05-14T13:25:05.922Z,79.30
2018-05-14T13:26:05.780Z,80.90
2018-05-14T13:27:58.686Z,77.60
2018-05-14T13:28:58.670Z,78.30
2018-05-14T13:30:51.567Z,80.80
2018-05-14T13:31:51.551Z,79.40
2018-05-14T13:33:44.462Z,77.50
2018-05-14T13:34:44.457Z,79.00
2018-05-14T13:36:37.349Z,77.10
2018-05-14T13:37:37.359Z,77.70
2018-05-14T13:39:30.236Z,72.60
2018-05-14T13:40:30.212Z,73.70
2018-05-14T13:42:23.195Z,75.60
2018-05-14T13:43:23.100Z,75.10
2018-05-14T13:45:16.006Z,77.60
2018-05-14T13:46:15.984Z,76.20
2018-05-14T13:48:08.921Z,71.50
2018-05-14T13:49:08.865Z,71.00
2018-05-14T13:51:02.282Z,68.50
2018-05-14T13:52:02.248Z,67.10
2018-05-14T13:53:55.151Z,61.80
2018-05-14T13:54:55.130Z,61.30
2018-05-14T13:56:48.035Z,60.90
2018-05-14T13:57:48.015Z,61.40
2018-05-14T13:59:41.422Z,57.80
2018-05-14T14:00:41.421Z,58.10
2018-05-14T14:02:34.338Z,61.00
2018-05-14T14:03:34.277Z,59.70
2018-05-14T14:05:27.340Z,64.40
2018-05-14T14:06:27.167Z,65.20
2018-05-14T14:08:20.101Z,70.00
2018-05-14T14:09:20.070Z,67.50
2018-05-14T14:11:12.979Z,69.00
2018-05-14T14:12:12.944Z,71.60
2018-05-14T14:14:05.846Z,69.70
2018-05-14T14:15:05.822Z,68.60
2018-05-14T14:16:58.803Z,69.40
2018-05-14T14:17:58.725Z,66.60
2018-05-14T14:19:52.707Z,63.80
2018-05-14T14:20:52.095Z,64.10
2018-05-14T14:22:45.011Z,59.30
2018-05-14T14:23:45.182Z,57.20
2018-05-14T14:25:38.381Z,55.80
2018-05-14T14:26:38.360Z,55.20
2018-05-14T14:28:31.367Z,51.10
2018-05-14T14:29:31.258Z,49.70
2018-05-14T14:31:24.275Z,44.70
2018-05-14T14:32:24.141Z,41.10
2018-05-14T14:34:17.611Z,30.20
2018-05-14T14:35:17.030Z,28.40
2018-05-14T14:37:09.986Z,22.30
2018-05-14T14:38:09.917Z,21.30
2018-05-14T14:40:02.868Z,19.60
2018-05-14T14:41:02.798Z,18.70
2018-05-14T14:42:56.200Z,17.70
2018-05-14T14:43:56.178Z,17.40
2018-05-14T14:45:49.608Z,18.70
2018-05-14T14:46:49.573Z,17.70
2018-05-14T14:48:42.474Z,18.20
2018-05-14T14:49:42.473Z,16.20
2018-05-14T14:51:35.431Z,16.30
2018-05-14T14:52:35.362Z,17.50
2018-05-14T14:54:28.273Z,17.50
2018-05-14T14:55:28.250Z,18.10
2018-05-14T14:57:21.702Z,16.20
2018-05-14T14:58:21.683Z,16.10
2018-05-14T15:00:14.550Z,15.70
2018-05-14T15:01:14.537Z,14.30
2018-05-14T15:03:07.444Z,13.70
2018-05-14T15:04:07.425Z,14.10
2018-05-14T15:06:00.329Z,13.90
2018-05-14T15:07:00.330Z,13.40
2018-05-14T15:08:53.226Z,13.30
2018-05-14T15:09:53.218Z,12.40
2018-05-14T15:11:46.110Z,13.10
2018-05-14T15:12:46.079Z,13.20
2018-05-14T15:14:39.602Z,11.90
2018-05-14T15:15:39.466Z,11.20
2018-05-14T15:17:32.968Z,11.70
2018-05-14T15:18:32.884Z,11.70
2018-05-14T15:20:25.816Z,12.00
2018-05-14T15:21:25.777Z,12.20
2018-05-14T15:23:18.823Z,10.90
2018-05-14T15:24:18.702Z,11.30
2018-05-14T15:26:11.612Z,11.30
2018-05-14T15:27:11.616Z,10.80
2018-05-14T15:29:57.502Z,10.50
2018-05-14T15:30:56.176Z,10.90
2018-05-14T15:32:48.606Z,10.80
2018-05-14T15:33:48.704Z,10.30
2018-05-14T15:35:42.147Z,9.60
2018-05-14T15:36:41.976Z,9.90
2018-05-14T15:38:34.915Z,10.50
2018-05-14T15:39:34.870Z,9.10
2018-05-14T15:41:28.067Z,9.20
2018-05-14T15:42:27.789Z,9.40
2018-05-14T15:44:20.968Z,9.70
2018-05-14T15:45:20.651Z,9.60
2018-05-14T15:47:14.054Z,10.00
2018-05-14T15:48:14.043Z,9.10
2018-05-14T15:50:07.185Z,8.70
2018-05-14T15:51:07.190Z,8.80
2018-05-14T15:53:00.158Z,9.40
2018-05-14T15:54:00.147Z,9.20
2018-05-14T15:55:53.583Z,7.60
2018-05-14T15:56:52.752Z,8.00
2018-05-14T15:58:45.652Z,7.80
2018-05-14T15:59:45.631Z,7.80
2018-05-14T16:01:38.543Z,7.40
2018-05-14T16:02:39.083Z,7.60
2018-05-14T16:04:31.698Z,7.00
2018-05-14T16:05:31.410Z,6.90
2018-05-14T16:07:25.019Z,7.20
2018-05-14T16:08:24.789Z,6.40
2018-05-14T16:10:17.717Z,6.60
2018-05-14T16:11:17.707Z,6.70
2018-05-14T16:13:10.605Z,6.80
2018-05-14T16:14:10.583Z,7.60
2018-05-14T16:16:03.495Z,6.80
2018-05-14T16:17:04.538Z,6.20
2018-05-14T16:18:56.880Z,5.60
2018-05-14T16:19:56.859Z,5.80
2018-05-14T16:21:50.271Z,5.80
2018-05-14T16:22:50.241Z,5.60
2018-05-14T16:24:43.150Z,5.80
2018-05-14T16:25:43.125Z,5.80
2018-05-14T16:27:36.553Z,5.50
2018-05-14T16:28:36.515Z,5.50
2018-05-14T16:30:29.447Z,5.50
2018-05-14T16:31:29.410Z,5.40
2018-05-14T16:33:22.381Z,5.50
2018-05-14T16:34:22.305Z,6.40
2018-05-14T16:36:16.385Z,6.10
2018-05-14T16:37:16.155Z,6.10
2018-05-14T16:39:09.723Z,5.60
2018-05-14T16:40:09.542Z,5.70
2018-05-14T16:42:03.119Z,4.80
2018-05-14T16:43:02.916Z,4.70
2018-05-14T16:44:55.892Z,5.00
2018-05-14T16:45:55.798Z,5.20
2018-05-14T16:47:49.288Z,4.70
2018-05-14T16:48:48.707Z,5.00
2018-05-14T16:50:41.621Z,4.90
2018-05-14T16:51:41.586Z,5.20
2018-05-14T16:53:34.738Z,5.30
2018-05-14T16:54:34.464Z,5.70
2018-05-14T16:56:27.905Z,4.90
2018-05-14T16:57:27.854Z,5.30
2018-05-14T16:59:20.855Z,6.00
2018-05-14T17:00:20.841Z,5.50
2018-05-14T17:02:14.266Z,6.10
2018-05-14T17:03:13.790Z,5.80
2018-05-14T17:05:07.430Z,5.50
2018-05-14T17:06:07.190Z,5.60
2018-05-14T17:08:01.334Z,5.00
2018-05-14T17:09:00.616Z,5.20
2018-05-14T17:10:53.489Z,5.30
2018-05-14T17:11:53.468Z,5.50
2018-05-14T17:13:46.372Z,5.20
2018-05-14T17:14:46.471Z,5.00
2018-05-14T17:17:30.410Z,5.20
2018-05-14T17:18:30.388Z,5.20
2018-05-14T17:20:23.482Z,5.00
2018-05-14T17:21:23.300Z,5.10
2018-05-14T17:23:17.071Z,6.20
2018-05-14T17:24:16.166Z,5.70
2018-05-14T17:26:09.349Z,5.30
2018-05-14T17:27:09.068Z,5.60
2018-05-14T17:29:01.968Z,5.70
2018-05-14T17:30:02.036Z,5.50
2018-05-14T17:31:55.357Z,5.80
2018-05-14T17:32:55.326Z,5.80
2018-05-14T17:34:49.315Z,5.90
2018-05-14T17:35:48.704Z,5.80
2018-05-14T17:37:42.725Z,5.50
2018-05-14T17:38:41.677Z,5.20
2018-05-14T17:40:34.571Z,5.40
2018-05-14T17:41:34.539Z,6.00
2018-05-14T17:43:27.941Z,5.90
2018-05-14T17:44:27.921Z,5.60
2018-05-14T17:46:21.130Z,5.80
2018-05-14T17:47:20.802Z,5.50
2018-05-14T17:49:13.866Z,5.40
2018-05-14T17:50:13.694Z,6.20
2018-05-14T17:52:07.091Z,6.00
2018-05-14T17:53:07.067Z,5.90
2018-05-14T17:55:00.213Z,5.90
2018-05-14T17:55:59.942Z,6.00
2018-05-14T17:57:52.878Z,5.40
2018-05-14T17:58:52.837Z,5.70
2018-05-14T18:00:46.288Z,5.70
2018-05-14T18:01:46.229Z,5.80
2018-05-14T18:03:39.128Z,6.10
2018-05-14T18:04:39.109Z,6.70
2018-05-14T18:06:32.529Z,6.60
2018-05-14T18:07:32.489Z,6.50
2018-05-14T18:09:25.409Z,5.60
2018-05-14T18:10:25.475Z,5.50
2018-05-14T18:12:19.035Z,5.90
2018-05-14T18:13:18.764Z,7.00
2018-05-14T18:15:11.672Z,6.60
2018-05-14T18:16:11.646Z,5.90
2018-05-14T18:18:04.562Z,6.50
2018-05-14T18:19:04.542Z,6.00
2018-05-14T18:20:57.439Z,5.40
2018-05-14T18:21:57.419Z,5.70
2018-05-14T18:23:50.895Z,6.40
2018-05-14T18:24:50.807Z,6.70
2018-05-14T18:26:43.720Z,6.00
2018-05-14T18:27:43.688Z,5.70
2018-05-14T18:29:36.737Z,5.10
2018-05-14T18:30:36.574Z,5.80
2018-05-14T18:32:29.486Z,5.90
2018-05-14T18:33:29.504Z,5.70
2018-05-14T18:35:22.381Z,5.60
2018-05-14T18:36:22.355Z,5.20
2018-05-14T18:38:15.262Z,5.80
2018-05-14T18:39:15.333Z,5.60
2018-05-14T18:41:08.163Z,5.90
2018-05-14T18:42:08.123Z,6.40
2018-05-14T18:44:01.062Z,9.60
2018-05-14T18:45:01.004Z,6.80